Airfield :
LOGIN :

Register | Disclaimer

   EN    FR    IT 

 










Legend :    VFR   Marginal VFR   IFR   Intensive IFR   Very Intensive IFR
Visi :
Ceiling :
>= 8 km
>= 3000ft
5 to 8 km
1000 to 3000 ft
1500m to 5 km
500 to 1000 ft
800 to 1500m
200 to 500 ft
< 800m
< 200 ft
Symbols :   Thunderstorms  Fog  Heavy snow  Heavy precipitations  Wind > 20 kt
SIGMETs :     Misc.  Thunderstorms  Icing  Turbulence  Mountain Waves  Volcanic Ashes






- Airport Elevation : 170 ft
- IATA code : BGO


ENBR - Bergen , Flesland

CURRENT METAR :
  • 282150Z 15020KT 9999 FEW013 SCT026 BKN032 06/02 Q1003 RMK WIND 1200FT 15034KT

EXPIRED METARs :
  • 282120Z 15017G28KT 9999 FEW020 BKN025 06/03 Q1003 RMK WIND 1200FT 15030KT
  • 282050Z 15021KT 9999 SCT014 BKN019 06/03 Q1004 RMK WIND 1200FT 15032KT
  • 282020Z 16019KT 9999 SCT012 BKN017 06/04 Q1004 TEMPO 16020G30KT BKN012 RMK WIND 1200FT 16030KT
  • 281950Z 16018G18KT 9999 SCT015 BKN022 06/04 Q1004 TEMPO BKN012 RMK WIND 1200FT 15029KT
  • 281920Z 16019KT 9999 VCSH BKN014 BKN039 06/04 Q1005 TEMPO BKN012 RMK WIND 1200FT 15027KT
  • 281850Z 16020KT 9999 SCT014 BKN018 06/04 Q1005 TEMPO BKN012 RMK WIND 1200FT 15026KT
  • 281820Z 16021KT 9999 BKN019 06/04 Q1006 NOSIG RMK WIND 1200FT 16026KT
  • 281750Z 16019KT 9999 SCT019 BKN043 06/04 Q1006 NOSIG RMK WIND 1200FT 16024KT
  • 281720Z 16018KT 9999 FEW013 SCT019 BKN048 06/05 Q1006 NOSIG RMK WIND 1200FT 16024KT

TAF TAF ENBR
Valid from the 28 at 18:00 until the 29 at 18:00 UTC


281700Z 2818/2918 16018KT 9999 -RA SCT012 BKN020
TEMPO 2818/2912 17022G35KT
TEMPO 2818/2902 BKN012
TEMPO 2902/2911 4000 RADZ BR BKN006
PROB40 2908/2911 BKN004
TEMPO 2911/2918 BKN012



MET'MAP, your aeronautical weather chart ! - Copyright ORBIFLY December 2007 - Disclaimer

ORBIFLY MET'MAP TEAM :

Programming & Development : Alexandra Zaïnal
Original concept : Baudouin d'Aumeries
Technical & hardware support : Manuel Goepfert
Assistance : Marc-Olivier Méhu




SOURCES & CREDITS :

   NOAA